Time;durP1;ratioP1;P1;durP2;ratioP2;P2;SDS_P1;SDS_P2;PMS_P1;PMS_P2;Temp;Humidity;BMP_temperature;BMP_pressure;BME280_temperature;BME280_humidity;BME280_pressure;Samples;Min_cycle;Max_cycle;Signal;HPM_P1;HPM_P2
2022/04/30 00:00:09;;;;;;;9.00;8.17;;;17.40;49.20;;;;;;5031371;28;20197;-43
2022/04/30 00:02:35;;;;;;;10.07;9.17;;;17.40;49.30;;;;;;5031519;28;20592;-42
2022/04/30 00:05:00;;;;;;;9.57;8.60;;;17.50;49.10;;;;;;5031793;28;20424;-43
2022/04/30 00:07:26;;;;;;;9.97;9.00;;;17.60;49.00;;;;;;5031138;28;20866;-43
2022/04/30 00:09:52;;;;;;;10.33;8.77;;;17.60;48.90;;;;;;5031189;28;20193;-42
2022/04/30 00:12:19;;;;;;;9.20;8.27;;;17.40;49.70;;;;;;5031187;28;20200;-43
2022/04/30 00:14:46;;;;;;;9.23;8.23;;;17.20;49.40;;;;;;5031517;28;21026;-44
2022/04/30 00:17:15;;;;;;;8.67;7.87;;;17.30;49.60;;;;;;5030778;28;20539;-43
2022/04/30 00:19:41;;;;;;;9.20;8.30;;;17.20;49.60;;;;;;5029347;28;20454;-44
2022/04/30 00:22:08;;;;;;;9.70;8.70;;;17.30;49.70;;;;;;5030677;28;20475;-43
2022/04/30 00:24:35;;;;;;;8.90;8.10;;;17.40;49.50;;;;;;5031575;28;20475;-43
2022/04/30 00:27:01;;;;;;;9.13;8.33;;;17.50;49.30;;;;;;5030813;28;20432;-43
2022/04/30 00:29:29;;;;;;;8.90;8.10;;;17.60;49.10;;;;;;5030989;28;20424;-42
2022/04/30 00:31:55;;;;;;;9.20;8.30;;;17.60;49.00;;;;;;5030462;28;20466;-44
2022/04/30 00:34:21;;;;;;;9.83;8.83;;;17.60;48.90;;;;;;5031060;28;20837;-43
2022/04/30 00:36:46;;;;;;;9.00;8.20;;;17.60;48.80;;;;;;5030696;28;20424;-43
2022/04/30 00:39:17;;;;;;;9.50;8.67;;;17.60;48.70;;;;;;5030818;28;20200;-45
2022/04/30 00:41:44;;;;;;;9.27;8.47;;;17.60;48.80;;;;;;5030536;28;20611;-43
2022/04/30 00:44:11;;;;;;;9.30;8.40;;;17.70;48.70;;;;;;5031074;28;20470;-43
2022/04/30 00:46:36;;;;;;;10.37;9.37;;;17.70;48.70;;;;;;5028775;28;20830;-42
2022/04/30 00:49:03;;;;;;;10.20;9.30;;;17.70;49.00;;;;;;5030608;28;20416;-42
2022/04/30 00:51:29;;;;;;;10.07;9.17;;;17.70;49.20;;;;;;5029391;28;20192;-43
2022/04/30 00:53:56;;;;;;;11.37;8.97;;;17.70;49.10;;;;;;5030891;28;20431;-43
2022/04/30 00:56:33;;;;;;;9.90;9.10;;;17.70;49.20;;;;;;5029932;28;20480;-43
2022/04/30 00:59:02;;;;;;;9.50;8.60;;;17.70;49.40;;;;;;5030779;28;20524;-42
2022/04/30 01:01:32;;;;;;;9.40;8.60;;;17.70;49.30;;;;;;5029727;28;20841;-44
2022/04/30 01:03:57;;;;;;;10.17;9.37;;;17.70;49.30;;;;;;5030940;28;20428;-43
2022/04/30 01:06:40;;;;;;;10.47;9.53;;;17.80;49.30;;;;;;5029929;28;21032;-43
2022/04/30 01:09:05;;;;;;;11.13;10.13;;;17.70;49.40;;;;;;5030294;28;20188;-43
2022/04/30 01:11:31;;;;;;;10.47;9.47;;;17.80;49.60;;;;;;5030151;28;20420;-43
2022/04/30 01:13:58;;;;;;;9.80;8.90;;;17.80;49.60;;;;;;5028834;28;20277;-43
2022/04/30 01:16:26;;;;;;;10.10;9.20;;;17.80;49.50;;;;;;5030045;28;20205;-44
2022/04/30 01:18:52;;;;;;;9.17;8.40;;;17.80;49.50;;;;;;5030403;28;20514;-44
2022/04/30 01:21:21;;;;;;;10.37;9.30;;;17.70;49.70;;;;;;5029827;28;20482;-44
2022/04/30 01:23:48;;;;;;;9.97;9.07;;;17.80;49.90;;;;;;5030326;28;20424;-43
2022/04/30 01:26:14;;;;;;;9.93;9.13;;;17.80;49.90;;;;;;5029960;28;20864;-46
2022/04/30 01:28:43;;;;;;;9.40;8.60;;;17.70;49.80;;;;;;5030390;28;20431;-44
2022/04/30 01:37:22;;;;;;;9.90;9.00;;;17.70;49.90;;;;;;5029423;28;20447;-43
2022/04/30 01:39:30;;;;;;;9.63;8.80;;;17.70;50.10;;;;;;5028443;28;20443;-46
2022/04/30 01:41:56;;;;;;;10.40;9.40;;;17.60;50.00;;;;;;5029695;28;20475;-45
2022/04/30 01:44:23;;;;;;;11.93;9.97;;;17.60;50.00;;;;;;5030242;28;20231;-44
2022/04/30 01:46:49;;;;;;;10.13;9.17;;;17.60;50.10;;;;;;5029430;28;21293;-44
2022/04/30 01:49:16;;;;;;;9.20;8.30;;;17.60;50.10;;;;;;5029627;28;20479;-43
2022/04/30 01:51:51;;;;;;;9.67;8.83;;;17.70;50.20;;;;;;5029734;28;20442;-44
2022/04/30 01:54:17;;;;;;;10.33;9.43;;;17.70;50.30;;;;;;5030038;28;20440;-43
2022/04/30 01:56:43;;;;;;;10.20;9.20;;;17.70;50.40;;;;;;5029576;28;20424;-43
2022/04/30 01:59:08;;;;;;;10.27;9.20;;;17.70;50.40;;;;;;5030094;28;20427;-44
2022/04/30 02:01:37;;;;;;;10.80;9.73;;;17.70;50.40;;;;;;5030869;28;20220;-43
2022/04/30 02:04:03;;;;;;;9.13;8.33;;;17.70;50.40;;;;;;5033933;28;20190;-44
2022/04/30 02:06:30;;;;;;;10.43;9.43;;;17.80;50.50;;;;;;5031833;28;20433;-44
2022/04/30 02:08:56;;;;;;;10.53;9.33;;;17.70;50.70;;;;;;5033913;28;20428;-44
2022/04/30 02:11:22;;;;;;;9.60;8.60;;;17.70;50.90;;;;;;5033017;28;20446;-43
2022/04/30 02:13:53;;;;;;;9.73;8.93;;;17.60;50.80;;;;;;5033748;28;20193;-44
2022/04/30 02:16:23;;;;;;;9.90;9.07;;;17.60;50.80;;;;;;5033422;28;20440;-43
2022/04/30 02:18:51;;;;;;;10.87;9.77;;;17.60;50.80;;;;;;5033745;28;20838;-43
2022/04/30 02:21:21;;;;;;;10.33;9.43;;;17.70;50.80;;;;;;5032763;28;21001;-43
2022/04/30 02:23:48;;;;;;;13.17;10.40;;;17.60;50.80;;;;;;5033464;28;20428;-44
2022/04/30 02:26:15;;;;;;;11.47;10.37;;;17.70;50.90;;;;;;5033216;28;20428;-44
2022/04/30 02:28:41;;;;;;;12.50;11.30;;;17.70;50.90;;;;;;5033693;28;20431;-47
2022/04/30 02:31:07;;;;;;;12.90;11.50;;;17.70;51.10;;;;;;5032783;28;20506;-45
2022/04/30 02:33:32;;;;;;;11.17;10.17;;;17.70;51.20;;;;;;5031607;28;20540;-44
2022/04/30 02:35:58;;;;;;;10.97;9.93;;;17.70;51.30;;;;;;5033064;28;20193;-44
2022/04/30 02:38:26;;;;;;;12.90;11.70;;;17.80;51.40;;;;;;5033389;28;20193;-43
2022/04/30 02:40:52;;;;;;;17.00;11.17;;;17.80;51.50;;;;;;5032635;28;20495;-43
2022/04/30 02:43:19;;;;;;;16.13;12.10;;;17.80;51.50;;;;;;5033444;28;20497;-43
2022/04/30 02:45:46;;;;;;;14.00;12.23;;;17.80;51.70;;;;;;5032598;28;20424;-43
2022/04/30 02:48:13;;;;;;;16.93;12.87;;;17.80;51.70;;;;;;5032799;28;20472;-44
2022/04/30 02:50:40;;;;;;;14.87;11.53;;;17.80;52.10;;;;;;5032288;28;20439;-43
2022/04/30 02:53:06;;;;;;;14.03;12.60;;;17.80;52.70;;;;;;5033064;28;20420;-44
2022/04/30 02:55:32;;;;;;;15.20;13.70;;;17.80;52.70;;;;;;5032611;28;20474;-43
2022/04/30 03:00:51;;;;;;;16.63;14.00;;;17.80;52.80;;;;;;5030315;28;20508;-44
2022/04/30 03:03:17;;;;;;;16.47;14.77;;;17.80;52.80;;;;;;5033077;28;20462;-43
2022/04/30 03:05:44;;;;;;;21.73;15.97;;;17.80;53.00;;;;;;5032419;28;20975;-42
2022/04/30 03:08:13;;;;;;;17.80;15.50;;;17.80;53.00;;;;;;5032961;28;20420;-49
2022/04/30 03:10:44;;;;;;;17.67;14.40;;;17.90;53.30;;;;;;5032070;28;20476;-43
2022/04/30 03:13:10;;;;;;;14.47;13.00;;;17.80;53.30;;;;;;5032232;28;20440;-42
2022/04/30 03:15:39;;;;;;;18.47;15.03;;;17.90;53.50;;;;;;5032164;28;20849;-44
2022/04/30 03:23:38;;;;;;;17.83;15.93;;;17.80;53.60;;;;;;5032894;28;20443;-43
2022/04/30 03:26:05;;;;;;;18.20;15.33;;;17.80;54.10;;;;;;5031816;28;20502;-43
2022/04/30 03:28:32;;;;;;;20.30;14.10;;;17.80;54.20;;;;;;5030761;28;20428;-42
2022/04/30 03:30:58;;;;;;;18.87;14.87;;;17.70;54.50;;;;;;5031475;28;20784;-43
2022/04/30 03:33:24;;;;;;;19.13;16.97;;;17.70;54.50;;;;;;5032398;28;20530;-43
2022/04/30 03:35:50;;;;;;;20.57;16.37;;;17.70;55.00;;;;;;5031507;28;20567;-44
2022/04/30 03:38:15;;;;;;;17.70;15.30;;;17.70;54.60;;;;;;5032271;28;20193;-42
2022/04/30 03:40:41;;;;;;;19.27;16.57;;;17.70;54.80;;;;;;5031322;28;20221;-43
2022/04/30 03:43:07;;;;;;;18.77;16.30;;;17.60;54.90;;;;;;5031985;28;20197;-43
2022/04/30 03:45:33;;;;;;;18.97;14.30;;;17.50;55.30;;;;;;5031730;28;20273;-43
2022/04/30 03:47:59;;;;;;;18.70;15.63;;;17.50;55.40;;;;;;5032037;28;20513;-43
2022/04/30 03:50:24;;;;;;;19.13;15.70;;;17.40;55.90;;;;;;5031373;28;20424;-42
2022/04/30 03:52:50;;;;;;;22.10;15.63;;;17.50;55.70;;;;;;5031903;28;20217;-43
2022/04/30 03:55:16;;;;;;;24.40;17.17;;;17.40;55.90;;;;;;5029840;28;20196;-43
2022/04/30 03:57:42;;;;;;;21.20;16.50;;;17.40;56.00;;;;;;5032118;28;20189;-43
2022/04/30 04:00:09;;;;;;;20.17;16.00;;;17.50;56.10;;;;;;5031333;28;20276;-44
2022/04/30 04:02:36;;;;;;;30.70;17.60;;;17.40;56.10;;;;;;5031431;28;20436;-43
2022/04/30 04:05:02;;;;;;;20.90;16.07;;;17.50;55.90;;;;;;5031541;28;20424;-43
2022/04/30 04:07:30;;;;;;;21.17;16.97;;;17.50;55.80;;;;;;5030901;28;20432;-42
2022/04/30 04:09:56;;;;;;;25.70;16.70;;;17.50;56.60;;;;;;5031258;28;20436;-43
2022/04/30 04:12:21;;;;;;;20.97;17.07;;;17.50;56.10;;;;;;5029631;28;20462;-42
2022/04/30 04:17:37;;;;;;;24.83;17.63;;;17.50;56.10;;;;;;5031032;28;20216;-43
2022/04/30 04:20:08;;;;;;;20.20;17.17;;;17.50;56.40;;;;;;5031239;28;20428;-42
2022/04/30 04:22:34;;;;;;;23.07;16.80;;;17.40;56.40;;;;;;5029200;28;20804;-42
2022/04/30 04:28:03;;;;;;;22.97;18.67;;;17.30;56.80;;;;;;4989622;28;20437;-42
2022/04/30 04:30:30;;;;;;;24.03;18.00;;;17.30;57.00;;;;;;4988652;28;20483;-43
2022/04/30 04:32:57;;;;;;;27.90;18.67;;;17.20;57.50;;;;;;5009066;28;20656;-42
2022/04/30 04:35:23;;;;;;;22.10;17.87;;;17.00;57.90;;;;;;5030777;28;20427;-43
2022/04/30 04:37:49;;;;;;;24.40;19.17;;;17.10;57.70;;;;;;5031120;28;20428;-42
2022/04/30 04:40:15;;;;;;;23.37;19.20;;;17.10;57.90;;;;;;5029844;28;20428;-43
2022/04/30 04:42:42;;;;;;;27.60;20.63;;;17.20;57.50;;;;;;5030923;28;20431;-44
2022/04/30 04:45:09;;;;;;;28.63;19.17;;;17.10;57.80;;;;;;5030920;28;20801;-42
2022/04/30 04:47:40;;;;;;;25.57;18.83;;;17.00;58.00;;;;;;5030668;28;20521;-43
2022/04/30 04:50:08;;;;;;;23.53;19.00;;;17.10;57.80;;;;;;5028906;28;20954;-43
2022/04/30 04:52:34;;;;;;;25.93;20.00;;;17.10;57.70;;;;;;5030678;28;20431;-44
2022/04/30 04:55:00;;;;;;;23.97;19.00;;;17.10;58.00;;;;;;5030688;28;20428;-43
2022/04/30 04:57:26;;;;;;;24.23;19.30;;;17.20;58.00;;;;;;5030520;28;20447;-44
2022/04/30 04:59:53;;;;;;;22.07;18.97;;;17.30;57.70;;;;;;5030578;28;20272;-43
2022/04/30 05:02:20;;;;;;;25.13;19.50;;;17.30;57.90;;;;;;5030305;28;20236;-43
2022/04/30 05:04:45;;;;;;;29.77;20.93;;;17.30;58.00;;;;;;5030809;28;20423;-43
2022/04/30 05:07:11;;;;;;;25.23;19.73;;;17.30;58.20;;;;;;5030230;28;20911;-44
2022/04/30 05:09:37;;;;;;;27.37;19.63;;;17.30;58.30;;;;;;5030096;28;20201;-43
2022/04/30 05:12:03;;;;;;;28.87;20.07;;;17.20;58.50;;;;;;5030326;28;20192;-43
2022/04/30 05:14:32;;;;;;;25.57;18.77;;;17.30;58.40;;;;;;5030467;28;20205;-42
2022/04/30 05:16:59;;;;;;;26.90;19.87;;;17.20;58.70;;;;;;5028553;28;20440;-43
2022/04/30 05:19:24;;;;;;;25.70;20.40;;;17.30;58.70;;;;;;5029838;28;20416;-43
2022/04/30 05:21:50;;;;;;;28.20;22.53;;;17.40;58.50;;;;;;5029961;28;20995;-44
2022/04/30 05:24:16;;;;;;;24.23;19.43;;;17.40;58.50;;;;;;5030600;28;20263;-44
2022/04/30 05:26:41;;;;;;;23.80;19.80;;;17.40;58.40;;;;;;5030087;28;20289;-43
2022/04/30 05:29:07;;;;;;;26.50;19.10;;;17.40;58.60;;;;;;5029976;28;20189;-43
2022/04/30 05:31:32;;;;;;;24.50;19.30;;;17.30;58.60;;;;;;5029975;28;20254;-43
2022/04/30 05:33:58;;;;;;;21.27;18.40;;;17.40;58.50;;;;;;5030537;28;20193;-43
2022/04/30 05:36:23;;;;;;;24.13;19.87;;;17.40;58.60;;;;;;5031086;28;20223;-43
2022/04/30 05:38:51;;;;;;;25.63;19.97;;;17.40;58.70;;;;;;5034025;28;20534;-43
2022/04/30 05:41:17;;;;;;;23.30;18.97;;;17.40;58.90;;;;;;5033500;28;20229;-43
2022/04/30 05:43:42;;;;;;;27.17;19.60;;;17.40;58.90;;;;;;5032696;28;20420;-43
2022/04/30 05:46:08;;;;;;;29.20;19.90;;;17.50;58.90;;;;;;5034069;28;20919;-43
2022/04/30 05:48:34;;;;;;;25.53;19.60;;;17.40;59.00;;;;;;5033754;28;20719;-43
2022/04/30 05:51:01;;;;;;;27.57;19.70;;;17.50;58.90;;;;;;5033531;28;20216;-43
2022/04/30 05:53:26;;;;;;;25.63;19.80;;;17.50;58.90;;;;;;5034098;28;20193;-44
2022/04/30 05:55:52;;;;;;;24.87;19.70;;;17.60;58.90;;;;;;5033580;28;20482;-43
2022/04/30 05:58:18;;;;;;;27.57;19.40;;;17.60;58.80;;;;;;5034057;28;20566;-43
2022/04/30 06:00:44;;;;;;;23.77;18.80;;;17.60;58.80;;;;;;5032950;28;20228;-43
2022/04/30 06:03:10;;;;;;;23.60;19.27;;;17.60;59.10;;;;;;5034255;28;20431;-44
2022/04/30 06:05:37;;;;;;;29.63;19.33;;;17.50;59.70;;;;;;5033542;28;20236;-43
2022/04/30 06:08:03;;;;;;;24.67;18.40;;;17.30;59.40;;;;;;5033905;28;20610;-42
2022/04/30 06:10:29;;;;;;;25.37;19.73;;;17.30;59.60;;;;;;5031101;28;20458;-43
2022/04/30 06:12:55;;;;;;;26.37;18.90;;;17.40;59.80;;;;;;5033731;28;20465;-43
2022/04/30 06:15:20;;;;;;;25.93;19.10;;;17.40;59.80;;;;;;5033503;28;20189;-43
2022/04/30 06:17:46;;;;;;;26.33;19.50;;;17.50;59.70;;;;;;5033584;28;20296;-43
2022/04/30 06:20:12;;;;;;;27.07;19.00;;;17.50;59.50;;;;;;5032800;28;20581;-44
2022/04/30 06:22:37;;;;;;;26.10;19.57;;;17.60;59.30;;;;;;5033830;28;20669;-43
2022/04/30 06:25:04;;;;;;;26.10;20.90;;;17.60;59.10;;;;;;5033927;28;20197;-42
2022/04/30 06:27:30;;;;;;;28.17;20.53;;;17.60;59.20;;;;;;5033096;28;20195;-43
2022/04/30 06:29:55;;;;;;;24.70;19.20;;;17.70;59.40;;;;;;5033149;28;20420;-43
2022/04/30 06:32:21;;;;;;;24.10;20.00;;;17.80;59.50;;;;;;5032678;28;20316;-43
2022/04/30 06:34:47;;;;;;;34.60;20.10;;;17.70;59.60;;;;;;5033444;28;20189;-43
2022/04/30 06:37:12;;;;;;;22.97;19.60;;;17.70;59.80;;;;;;5031052;28;20251;-43
2022/04/30 06:39:38;;;;;;;27.30;20.07;;;17.50;60.10;;;;;;5032887;28;20220;-42
2022/04/30 06:42:04;;;;;;;25.47;19.83;;;17.50;60.90;;;;;;5032772;28;20233;-44
2022/04/30 06:44:29;;;;;;;26.80;20.07;;;17.60;61.20;;;;;;5033409;28;20284;-43
2022/04/30 06:46:55;;;;;;;27.07;19.63;;;17.70;61.20;;;;;;5032219;28;21035;-43
2022/04/30 06:49:23;;;;;;;26.70;20.13;;;17.80;61.00;;;;;;5031551;28;20186;-42
2022/04/30 06:51:49;;;;;;;26.00;20.43;;;17.70;60.60;;;;;;5032572;28;20524;-42
2022/04/30 06:57:08;;;;;;;28.60;21.40;;;17.50;60.50;;;;;;5032542;28;20231;-42
2022/04/30 06:59:39;;;;;;;22.87;19.10;;;17.40;61.00;;;;;;5032280;28;20439;-43
2022/04/30 07:02:12;;;;;;;24.20;20.70;;;17.40;61.20;;;;;;5032404;28;20479;-42
2022/04/30 07:04:42;;;;;;;24.63;18.70;;;17.40;60.90;;;;;;5030272;28;20432;-43
2022/04/30 07:07:08;;;;;;;23.07;20.63;;;17.30;61.20;;;;;;5032467;28;20433;-43
2022/04/30 07:09:35;;;;;;;27.93;19.90;;;17.40;61.30;;;;;;5032128;28;20523;-43
2022/04/30 07:12:06;;;;;;;22.37;19.27;;;17.40;61.30;;;;;;5032273;28;20431;-43
2022/04/30 07:14:35;;;;;;;26.57;20.70;;;17.30;61.20;;;;;;5032698;28;20483;-43
2022/04/30 07:17:06;;;;;;;22.53;19.47;;;17.30;61.40;;;;;;5032245;28;20443;-46
2022/04/30 07:19:32;;;;;;;27.33;21.57;;;17.40;61.20;;;;;;5031884;28;20428;-43
2022/04/30 07:21:57;;;;;;;23.80;19.47;;;17.50;61.10;;;;;;5031958;28;20490;-44
2022/04/30 07:24:23;;;;;;;24.00;21.20;;;17.60;61.40;;;;;;5032474;28;20280;-44
2022/04/30 07:26:48;;;;;;;24.83;21.93;;;17.60;61.20;;;;;;5031919;28;20294;-44
2022/04/30 07:29:14;;;;;;;25.33;22.63;;;17.60;60.80;;;;;;5031852;28;20193;-44
2022/04/30 07:31:40;;;;;;;25.60;20.77;;;17.70;60.50;;;;;;5030672;28;20189;-44
2022/04/30 07:34:06;;;;;;;26.63;22.77;;;17.70;60.20;;;;;;5032270;28;20197;-44
2022/04/30 07:36:31;;;;;;;21.50;19.00;;;17.70;60.40;;;;;;5031507;28;20498;-43
2022/04/30 07:38:58;;;;;;;20.63;18.20;;;17.60;60.00;;;;;;5031841;28;20196;-43
2022/04/30 07:41:23;;;;;;;20.00;17.83;;;17.60;60.00;;;;;;5031460;28;20240;-44
2022/04/30 07:43:49;;;;;;;19.73;17.50;;;17.60;59.90;;;;;;5032129;28;20791;-43
2022/04/30 07:46:15;;;;;;;19.50;17.33;;;17.60;60.00;;;;;;5031519;28;20193;-43
2022/04/30 07:48:40;;;;;;;23.37;17.40;;;17.60;60.00;;;;;;5031556;28;20268;-44
2022/04/30 07:51:14;;;;;;;21.67;16.80;;;17.60;59.90;;;;;;5031950;28;20200;-44
2022/04/30 07:53:40;;;;;;;19.43;16.80;;;17.60;59.90;;;;;;5032301;28;20284;-43
2022/04/30 07:56:06;;;;;;;20.23;17.03;;;17.60;59.80;;;;;;5031271;28;20428;-43
2022/04/30 07:58:31;;;;;;;23.10;17.63;;;17.50;59.70;;;;;;5029786;28;20439;-46
2022/04/30 08:00:57;;;;;;;22.27;17.57;;;17.50;59.80;;;;;;5031048;28;20236;-43
2022/04/30 08:03:22;;;;;;;21.33;17.07;;;17.60;59.90;;;;;;5031789;28;20189;-47
2022/04/30 08:05:48;;;;;;;19.97;17.13;;;17.50;59.80;;;;;;5030962;28;20197;-43
2022/04/30 08:08:13;;;;;;;26.60;17.57;;;17.50;59.80;;;;;;5031810;28;20616;-44
2022/04/30 08:10:39;;;;;;;18.07;16.13;;;17.50;59.90;;;;;;5030832;28;20223;-44
2022/04/30 08:13:06;;;;;;;19.80;16.90;;;17.30;60.40;;;;;;5031656;28;20232;-44
2022/04/30 08:15:32;;;;;;;19.57;16.47;;;17.40;60.60;;;;;;5030881;28;20208;-44
2022/04/30 08:17:58;;;;;;;18.47;16.47;;;17.50;60.70;;;;;;5032124;28;20470;-45
2022/04/30 08:20:24;;;;;;;17.17;15.30;;;17.30;60.70;;;;;;5030639;28;20424;-43
2022/04/30 08:22:50;;;;;;;19.83;17.70;;;17.30;61.80;;;;;;5031258;28;20193;-47
2022/04/30 08:25:15;;;;;;;18.27;16.20;;;17.40;62.10;;;;;;5029380;28;20197;-45
2022/04/30 08:27:41;;;;;;;20.27;16.83;;;17.60;61.70;;;;;;5031412;28;21104;-43
2022/04/30 08:30:08;;;;;;;18.10;16.20;;;17.60;60.40;;;;;;5030786;28;20193;-43
2022/04/30 08:32:33;;;;;;;19.47;15.70;;;17.60;60.50;;;;;;5030781;28;20428;-44
2022/04/30 08:35:01;;;;;;;23.03;16.20;;;17.60;60.70;;;;;;5031011;28;20435;-44
2022/04/30 08:37:26;;;;;;;18.33;16.10;;;17.60;60.40;;;;;;5030640;28;20208;-43
2022/04/30 08:39:52;;;;;;;23.20;16.50;;;17.50;60.50;;;;;;5029481;28;20436;-44
2022/04/30 08:42:20;;;;;;;17.13;15.33;;;17.60;60.70;;;;;;5030218;28;20315;-45
2022/04/30 08:44:45;;;;;;;16.90;14.93;;;17.60;60.50;;;;;;5031011;28;20192;-46
2022/04/30 08:47:11;;;;;;;19.20;15.87;;;17.50;60.20;;;;;;5030468;28;20476;-45
2022/04/30 08:49:42;;;;;;;18.33;15.30;;;17.60;60.60;;;;;;5030528;28;20213;-44
2022/04/30 08:52:08;;;;;;;18.17;15.13;;;17.70;61.00;;;;;;5028952;28;20201;-44
2022/04/30 08:54:34;;;;;;;17.90;15.87;;;17.70;60.80;;;;;;5030813;28;20439;-44
2022/04/30 08:57:00;;;;;;;16.90;15.20;;;17.80;60.80;;;;;;5030261;28;20439;-46
2022/04/30 08:59:27;;;;;;;17.80;15.60;;;17.60;61.00;;;;;;5030266;28;20189;-43
2022/04/30 09:01:55;;;;;;;16.53;14.80;;;17.80;61.50;;;;;;5030011;28;20251;-44
2022/04/30 09:04:21;;;;;;;16.40;14.80;;;17.80;61.60;;;;;;5030556;28;20985;-46
2022/04/30 09:06:53;;;;;;;18.30;15.10;;;17.90;61.70;;;;;;5030463;28;20428;-47
2022/04/30 09:09:28;;;;;;;17.73;15.67;;;17.80;61.00;;;;;;5030188;28;20454;-44
2022/04/30 09:11:56;;;;;;;17.90;16.10;;;17.80;61.10;;;;;;5029348;28;20459;-44
2022/04/30 09:14:28;;;;;;;18.00;15.57;;;17.60;61.30;;;;;;5030585;28;20959;-44
2022/04/30 09:17:10;;;;;;;17.57;15.87;;;17.70;62.30;;;;;;5030131;28;20513;-44
2022/04/30 09:19:55;;;;;;;19.27;15.70;;;17.80;62.00;;;;;;5029239;28;20511;-44
2022/04/30 09:22:33;;;;;;;17.40;15.53;;;17.90;60.80;;;;;;5029858;28;20476;-44
2022/04/30 09:25:00;;;;;;;18.10;15.80;;;17.90;61.00;;;;;;5030441;28;20872;-43
2022/04/30 09:27:27;;;;;;;17.13;14.63;;;17.90;61.20;;;;;;5029610;28;20432;-44
2022/04/30 09:29:53;;;;;;;15.90;14.20;;;18.00;60.80;;;;;;5030051;28;20788;-44
2022/04/30 09:32:21;;;;;;;16.70;15.00;;;18.10;60.70;;;;;;5029935;28;20424;-44
2022/04/30 09:37:42;;;;;;;16.30;14.70;;;18.00;60.50;;;;;;5030201;28;20431;-44
2022/04/30 09:40:14;;;;;;;15.53;14.03;;;17.90;59.80;;;;;;5030063;28;20435;-44
2022/04/30 09:42:44;;;;;;;16.40;14.90;;;17.90;59.90;;;;;;5030520;28;20451;-44
2022/04/30 09:45:33;;;;;;;16.37;14.67;;;17.90;59.50;;;;;;5028550;28;20785;-47
2022/04/30 09:48:01;;;;;;;14.77;13.37;;;17.80;59.40;;;;;;5029675;28;21046;-44
2022/04/30 09:56:07;;;;;;;13.73;12.33;;;17.90;59.80;;;;;;5029742;28;20973;-45
2022/04/30 09:58:38;;;;;;;13.77;10.03;;;18.00;59.60;;;;;;5029943;28;20431;-44
2022/04/30 10:01:05;;;;;;;11.90;10.70;;;18.00;58.80;;;;;;5029389;28;20563;-46
2022/04/30 10:03:33;;;;;;;11.93;10.83;;;18.10;58.80;;;;;;5029913;28;20432;-44
2022/04/30 10:06:04;;;;;;;11.33;10.23;;;18.20;58.80;;;;;;5029341;28;20798;-44
2022/04/30 10:08:39;;;;;;;12.10;10.90;;;18.10;58.90;;;;;;5029547;28;20428;-44
2022/04/30 10:11:27;;;;;;;10.80;9.70;;;18.20;59.10;;;;;;5027715;28;20431;-45
2022/04/30 10:14:30;;;;;;;8.10;7.40;;;18.20;58.50;;;;;;5029927;28;20436;-43
2022/04/30 10:17:13;;;;;;;6.27;5.77;;;18.10;57.80;;;;;;5027149;28;20875;-44
2022/04/30 10:19:40;;;;;;;6.60;6.03;;;18.00;57.80;;;;;;5029700;28;20474;-44
2022/04/30 10:22:11;;;;;;;6.20;5.60;;;17.90;57.00;;;;;;5030026;28;20483;-44
2022/04/30 10:24:48;;;;;;;6.10;5.60;;;17.90;56.80;;;;;;5033561;28;20424;-44
2022/04/30 10:27:15;;;;;;;7.13;6.50;;;18.00;56.80;;;;;;5033098;28;20416;-45
2022/04/30 10:29:58;;;;;;;6.97;6.37;;;17.80;57.50;;;;;;5033324;28;20424;-45
2022/04/30 10:32:34;;;;;;;6.67;6.07;;;17.70;57.70;;;;;;5032950;28;20835;-46
2022/04/30 10:35:00;;;;;;;6.70;6.00;;;17.80;57.60;;;;;;5033342;28;20442;-44
2022/04/30 10:37:31;;;;;;;5.60;5.10;;;17.70;57.20;;;;;;5032840;28;20459;-44
2022/04/30 10:39:58;;;;;;;6.73;4.87;;;17.60;56.90;;;;;;5031491;28;20427;-45
2022/04/30 10:42:31;;;;;;;4.80;4.40;;;17.70;56.50;;;;;;5032727;28;20534;-44
2022/04/30 10:44:58;;;;;;;4.80;4.40;;;17.60;56.20;;;;;;5033038;28;20440;-44
2022/04/30 10:47:24;;;;;;;5.53;5.13;;;17.60;56.30;;;;;;5032746;28;20467;-46
2022/04/30 10:49:49;;;;;;;4.90;4.50;;;17.50;56.10;;;;;;5033010;28;20432;-45
2022/04/30 10:52:24;;;;;;;7.63;5.70;;;17.20;56.50;;;;;;5032597;28;20432;-45
2022/04/30 10:54:50;;;;;;;5.83;5.33;;;17.10;57.10;;;;;;5032898;28;20326;-44
2022/04/30 10:57:16;;;;;;;5.17;4.80;;;17.20;57.50;;;;;;5032545;28;20447;-46
2022/04/30 10:59:42;;;;;;;5.83;5.33;;;17.20;57.80;;;;;;5032421;28;20420;-44
2022/04/30 11:02:12;;;;;;;5.67;5.23;;;17.30;57.10;;;;;;5032523;28;20825;-44
2022/04/30 11:04:37;;;;;;;6.03;5.43;;;17.50;57.50;;;;;;5032492;28;20276;-44
2022/04/30 11:07:03;;;;;;;5.87;5.37;;;17.60;57.40;;;;;;5031100;28;20999;-44
2022/04/30 11:09:29;;;;;;;5.50;5.10;;;17.70;57.60;;;;;;5032381;28;20213;-47
2022/04/30 11:11:56;;;;;;;5.73;5.23;;;17.80;57.50;;;;;;5032299;28;20420;-45
2022/04/30 11:14:23;;;;;;;5.97;5.37;;;17.90;57.40;;;;;;5032895;28;20185;-45
2022/04/30 11:16:49;;;;;;;5.27;4.50;;;17.90;57.30;;;;;;5032299;28;20436;-44
2022/04/30 11:19:20;;;;;;;4.80;4.27;;;17.90;57.30;;;;;;5032201;28;20432;-44
2022/04/30 11:21:53;;;;;;;4.67;4.27;;;18.00;57.10;;;;;;5032098;28;20982;-44
2022/04/30 11:24:29;;;;;;;4.90;4.40;;;17.90;56.50;;;;;;5032211;28;20789;-45
2022/04/30 11:27:02;;;;;;;5.40;4.83;;;17.90;56.80;;;;;;5031783;28;20420;-46
2022/04/30 11:29:29;;;;;;;5.47;5.07;;;17.90;56.90;;;;;;5032043;28;20919;-45
2022/04/30 11:31:55;;;;;;;4.20;3.90;;;17.80;57.10;;;;;;5030226;28;20514;-45
2022/04/30 11:34:21;;;;;;;5.67;5.20;;;17.60;57.60;;;;;;5031680;28;20427;-43
2022/04/30 11:36:53;;;;;;;4.90;4.50;;;17.80;57.90;;;;;;5031717;28;20424;-45
2022/04/30 11:39:19;;;;;;;4.70;4.30;;;17.90;58.20;;;;;;5032127;28;20431;-46
2022/04/30 11:41:51;;;;;;;4.63;4.23;;;18.10;58.20;;;;;;5031573;28;20609;-45
2022/04/30 11:44:18;;;;;;;5.10;4.20;;;18.20;57.70;;;;;;5031976;28;20513;-46
2022/04/30 11:46:46;;;;;;;5.80;4.67;;;17.90;58.60;;;;;;5031330;28;20974;-44
2022/04/30 11:49:17;;;;;;;5.20;4.80;;;18.20;59.40;;;;;;5031460;28;20816;-45
2022/04/30 11:51:44;;;;;;;4.20;3.80;;;18.40;59.50;;;;;;5031443;28;20551;-45
2022/04/30 11:54:15;;;;;;;3.77;3.47;;;18.70;58.40;;;;;;5031842;28;20800;-45
2022/04/30 11:56:42;;;;;;;3.63;3.40;;;18.90;57.30;;;;;;5031459;28;20424;-44
2022/04/30 11:59:08;;;;;;;3.50;3.27;;;19.00;57.00;;;;;;5030109;28;20420;-45
2022/04/30 12:01:35;;;;;;;3.20;3.00;;;19.10;56.40;;;;;;5031291;28;20493;-45
2022/04/30 12:04:05;;;;;;;2.90;2.70;;;19.10;55.30;;;;;;5031641;28;20718;-44
2022/04/30 12:06:32;;;;;;;3.00;2.80;;;19.30;55.50;;;;;;5031332;28;20950;-44
2022/04/30 12:08:58;;;;;;;3.00;2.80;;;19.10;55.70;;;;;;5031482;28;20443;-48
2022/04/30 12:11:24;;;;;;;3.80;3.50;;;19.20;55.80;;;;;;5031296;28;20424;-45
2022/04/30 12:13:58;;;;;;;3.40;3.10;;;19.30;55.60;;;;;;5031570;28;21163;-46
2022/04/30 12:16:23;;;;;;;3.40;3.20;;;19.50;55.50;;;;;;5031104;28;20436;-44
2022/04/30 12:24:43;;;;;;;2.90;2.70;;;20.10;56.50;;;;;;5031721;28;20808;-44
2022/04/30 12:27:10;;;;;;;2.83;2.63;;;20.30;55.20;;;;;;5029272;28;20485;-44
2022/04/30 12:29:37;;;;;;;3.10;2.80;;;20.30;54.60;;;;;;5031074;28;20777;-44
2022/04/30 12:32:04;;;;;;;3.53;3.30;;;20.50;53.70;;;;;;5030810;28;20435;-44
2022/04/30 12:34:37;;;;;;;2.97;2.77;;;20.50;52.60;;;;;;5031262;28;20424;-45
2022/04/30 12:37:03;;;;;;;3.17;2.87;;;20.50;51.50;;;;;;5030648;28;20424;-44
2022/04/30 12:39:28;;;;;;;3.07;2.87;;;20.50;51.20;;;;;;5030821;28;20434;-46
2022/04/30 12:41:57;;;;;;;3.10;2.90;;;20.40;51.10;;;;;;5030422;28;20243;-45
2022/04/30 12:44:24;;;;;;;2.10;2.00;;;20.50;51.20;;;;;;5031004;28;20255;-45
2022/04/30 12:46:49;;;;;;;3.10;2.90;;;20.40;49.60;;;;;;5029269;28;20803;-44
2022/04/30 12:49:17;;;;;;;2.40;2.30;;;20.40;49.70;;;;;;5030355;28;20420;-44
2022/04/30 12:51:44;;;;;;;2.60;2.40;;;20.40;49.60;;;;;;5030274;28;20482;-44
2022/04/30 12:54:12;;;;;;;2.90;2.60;;;20.40;49.90;;;;;;5029430;28;20460;-45
2022/04/30 12:56:39;;;;;;;2.87;2.67;;;20.30;49.70;;;;;;5030221;28;20435;-45
2022/04/30 12:59:05;;;;;;;2.80;2.60;;;20.50;49.70;;;;;;5030587;28;20502;-44
2022/04/30 13:01:31;;;;;;;2.90;2.57;;;20.50;49.50;;;;;;5030064;28;20675;-44
2022/04/30 13:03:56;;;;;;;2.90;2.70;;;20.50;49.10;;;;;;5031082;28;20931;-44
2022/04/30 13:06:22;;;;;;;3.30;3.10;;;20.40;49.40;;;;;;5029858;28;20197;-45
2022/04/30 13:14:21;;;;;;;2.90;2.70;;;20.20;49.00;;;;;;5030393;28;20439;-44
2022/04/30 13:16:48;;;;;;;5.07;3.07;;;20.10;49.60;;;;;;5029965;28;20432;-44